Time;durP1;ratioP1;P1;durP2;ratioP2;P2;SDS_P1;SDS_P2;PMS_P1;PMS_P2;Temp;Humidity;BMP_temperature;BMP_pressure;BME280_temperature;BME280_humidity;BME280_pressure;Samples;Min_cycle;Max_cycle;Signal;HPM_P1;HPM_P2
2022/11/30 00:01:19;;;;;;;36.80;24.00;;;7.90;99.90;;;;;;5013765;28;20147;-81
2022/11/30 00:03:45;;;;;;;39.45;24.23;;;7.70;99.90;;;;;;5012141;28;20041;-80
2022/11/30 00:06:13;;;;;;;38.58;24.52;;;8.80;99.90;;;;;;4998717;28;20504;-81
2022/11/30 00:08:39;;;;;;;40.35;25.88;;;8.90;99.90;;;;;;4990889;28;20093;-81
2022/11/30 00:11:14;;;;;;;42.45;25.73;;;7.60;99.90;;;;;;5013762;28;20081;-81
2022/11/30 00:13:39;;;;;;;40.50;24.52;;;8.70;99.90;;;;;;5013407;28;20044;-81
2022/11/30 00:16:06;;;;;;;42.35;24.95;;;8.00;99.90;;;;;;5012313;28;20037;-81
2022/11/30 00:18:31;;;;;;;40.40;23.95;;;7.60;99.90;;;;;;5013914;28;20453;-81
2022/11/30 00:21:02;;;;;;;41.95;25.05;;;8.60;99.90;;;;;;4986487;28;20037;-80
2022/11/30 00:23:35;;;;;;;44.50;25.58;;;7.60;99.90;;;;;;4976389;28;20034;-81
2022/11/30 00:26:03;;;;;;;44.08;24.75;;;7.60;99.90;;;;;;4976359;28;20057;-81
2022/11/30 00:28:31;;;;;;;50.33;27.50;;;8.80;99.90;;;;;;4994001;28;20046;-81
2022/11/30 00:30:58;;;;;;;48.22;25.80;;;8.40;99.90;;;;;;4994441;28;20086;-81
2022/11/30 00:33:24;;;;;;;49.95;26.23;;;8.90;99.90;;;;;;4976128;28;20141;-81
2022/11/30 00:36:00;;;;;;;57.75;27.05;;;7.50;99.90;;;;;;4976412;28;20038;-80
2022/11/30 00:38:27;;;;;;;49.47;26.55;;;7.60;99.90;;;;;;4976097;28;20038;-81
2022/11/30 00:40:52;;;;;;;49.17;26.17;;;7.30;99.90;;;;;;4976430;28;20141;-81
2022/11/30 00:43:18;;;;;;;52.25;26.88;;;7.30;99.90;;;;;;4993428;28;20173;-80
2022/11/30 00:45:44;;;;;;;48.92;26.20;;;7.80;99.90;;;;;;4959851;28;20052;-81
2022/11/30 00:48:10;;;;;;;53.15;27.67;;;8.70;99.90;;;;;;4975856;28;20191;-81
2022/11/30 00:50:36;;;;;;;50.75;26.25;;;8.50;99.90;;;;;;4976023;28;20042;-80
2022/11/30 00:53:01;;;;;;;46.25;26.08;;;8.60;99.90;;;;;;4975869;28;20559;-81
2022/11/30 00:55:27;;;;;;;51.38;27.38;;;8.60;99.90;;;;;;4975362;28;20396;-80
2022/11/30 00:57:53;;;;;;;44.95;25.65;;;8.40;99.90;;;;;;4976138;28;20096;-81
2022/11/30 01:00:18;;;;;;;47.35;26.67;;;8.70;99.90;;;;;;4975373;28;20045;-81
2022/11/30 01:02:44;;;;;;;51.05;26.02;;;7.10;99.90;;;;;;4991887;28;20570;-81
2022/11/30 01:05:10;;;;;;;50.08;26.65;;;7.10;99.90;;;;;;5005050;28;20060;-80
2022/11/30 01:07:36;;;;;;;50.35;26.42;;;6.90;99.90;;;;;;5009263;28;20401;-80
2022/11/30 01:10:02;;;;;;;47.70;26.08;;;8.70;99.90;;;;;;5012350;28;20475;-80
2022/11/30 01:12:28;;;;;;;45.28;24.90;;;7.20;99.90;;;;;;5011355;28;20128;-80
2022/11/30 01:14:54;;;;;;;45.28;25.15;;;7.20;99.90;;;;;;5011854;28;20133;-81
2022/11/30 01:17:19;;;;;;;45.50;25.23;;;7.30;99.90;;;;;;5011372;28;20050;-81
2022/11/30 01:19:45;;;;;;;43.50;26.13;;;7.50;99.90;;;;;;5013070;28;20053;-81
2022/11/30 01:22:10;;;;;;;45.38;25.90;;;8.40;99.90;;;;;;5011526;28;20050;-81
2022/11/30 01:24:36;;;;;;;43.17;25.20;;;7.30;99.90;;;;;;5012872;28;20069;-81
2022/11/30 01:27:01;;;;;;;43.55;24.55;;;7.30;99.90;;;;;;5010968;28;20041;-81
2022/11/30 01:29:27;;;;;;;44.08;25.50;;;7.40;99.90;;;;;;5011157;28;20038;-80
2022/11/30 01:31:53;;;;;;;40.60;25.20;;;7.40;99.90;;;;;;5012834;28;20038;-81
2022/11/30 01:34:43;;;;;;;39.45;24.30;;;7.30;99.90;;;;;;5011306;28;20111;-81
2022/11/30 01:37:08;;;;;;;41.15;25.52;;;7.30;99.90;;;;;;5012652;28;20038;-81
2022/11/30 01:39:34;;;;;;;38.92;24.05;;;7.30;99.90;;;;;;5012519;28;20044;-81
2022/11/30 01:42:00;;;;;;;41.88;24.83;;;8.50;99.90;;;;;;5009901;28;20344;-81
2022/11/30 01:44:26;;;;;;;40.28;24.95;;;7.30;99.90;;;;;;5004975;28;20042;-81
2022/11/30 01:47:10;;;;;;;43.92;24.95;;;8.60;99.90;;;;;;5011303;28;20058;-81
2022/11/30 01:49:40;;;;;;;38.10;25.33;;;7.30;99.90;;;;;;4991802;28;20054;-81
2022/11/30 01:52:33;;;;;;;39.85;24.45;;;7.50;99.90;;;;;;4991812;28;20507;-81
2022/11/30 01:55:35;;;;;;;39.30;24.65;;;8.00;99.90;;;;;;4989743;28;20446;-81
2022/11/30 01:58:16;;;;;;;37.90;23.73;;;7.20;99.90;;;;;;5010887;28;20038;-81
2022/11/30 02:00:46;;;;;;;39.85;24.77;;;7.20;99.90;;;;;;5012194;28;20047;-81
2022/11/30 02:03:37;;;;;;;40.83;23.38;;;7.30;99.90;;;;;;5011906;28;20048;-81
2022/11/30 02:06:03;;;;;;;40.60;24.50;;;7.30;99.90;;;;;;5010937;28;20045;-81
2022/11/30 02:08:30;;;;;;;40.65;23.75;;;7.30;99.90;;;;;;5011967;28;20057;-80
2022/11/30 02:11:01;;;;;;;39.97;25.02;;;7.20;99.90;;;;;;5010949;28;20504;-81
2022/11/30 02:13:54;;;;;;;39.10;25.02;;;7.20;99.90;;;;;;5012202;28;20046;-80
2022/11/30 02:16:53;;;;;;;39.05;24.15;;;7.20;99.90;;;;;;5008172;28;20046;-80
2022/11/30 02:19:58;;;;;;;42.33;25.20;;;7.20;99.90;;;;;;5006121;28;20053;-79
2022/11/30 02:23:06;;;;;;;39.15;23.77;;;7.30;99.90;;;;;;4993894;28;20043;-79
2022/11/30 02:26:04;;;;;;;38.90;24.70;;;7.30;99.90;;;;;;5002742;28;20044;-79
2022/11/30 02:28:56;;;;;;;39.92;24.75;;;7.30;99.90;;;;;;5014124;28;20049;-80
2022/11/30 02:31:32;;;;;;;41.00;24.35;;;7.20;99.90;;;;;;5015809;28;20050;-80
2022/11/30 02:34:00;;;;;;;40.63;25.52;;;7.20;99.90;;;;;;5014581;28;20433;-80
2022/11/30 02:36:27;;;;;;;45.53;25.20;;;7.30;99.90;;;;;;5014187;28;20069;-79
2022/11/30 02:38:54;;;;;;;40.13;24.40;;;7.30;99.90;;;;;;5015605;28;20056;-79
2022/11/30 02:41:19;;;;;;;42.20;25.38;;;7.30;99.90;;;;;;5014579;28;20394;-80
2022/11/30 02:43:45;;;;;;;43.85;25.80;;;8.40;99.90;;;;;;5015719;28;20060;-79
2022/11/30 02:46:29;;;;;;;41.03;25.90;;;7.30;99.90;;;;;;5014119;28;20513;-80
2022/11/30 02:49:02;;;;;;;42.17;24.20;;;7.30;99.90;;;;;;5015472;28;20453;-79
2022/11/30 02:51:31;;;;;;;39.85;24.58;;;7.30;99.90;;;;;;5014335;28;20054;-80
2022/11/30 02:53:56;;;;;;;38.25;24.10;;;7.30;99.90;;;;;;5015254;28;20056;-80
2022/11/30 02:56:23;;;;;;;39.97;24.83;;;7.30;99.90;;;;;;5014619;28;20042;-80
2022/11/30 02:58:48;;;;;;;39.03;24.02;;;7.30;99.90;;;;;;5013499;28;20126;-80
2022/11/30 03:01:14;;;;;;;39.55;25.05;;;7.40;99.90;;;;;;5014910;28;20545;-80
2022/11/30 03:03:40;;;;;;;42.08;25.08;;;7.80;99.90;;;;;;5013856;28;20046;-80
2022/11/30 03:06:05;;;;;;;40.58;24.75;;;7.30;99.90;;;;;;5013009;28;20088;-80
2022/11/30 03:08:31;;;;;;;41.33;24.60;;;7.30;99.90;;;;;;5014781;28;20413;-80
2022/11/30 03:11:01;;;;;;;39.97;24.73;;;8.50;99.90;;;;;;5014545;28;20046;-80
2022/11/30 03:13:26;;;;;;;41.15;26.45;;;7.90;99.90;;;;;;5014322;28;20103;-80
2022/11/30 03:15:52;;;;;;;39.47;25.20;;;7.30;99.90;;;;;;5013178;28;20446;-80
2022/11/30 03:18:18;;;;;;;42.08;24.80;;;7.40;99.90;;;;;;5029314;28;20049;-80
2022/11/30 03:20:43;;;;;;;38.75;24.38;;;7.30;99.90;;;;;;5013592;28;20057;-80
2022/11/30 03:23:09;;;;;;;40.00;25.38;;;7.30;99.90;;;;;;5013301;28;20501;-80
2022/11/30 03:25:35;;;;;;;43.30;25.13;;;7.30;99.90;;;;;;5014474;28;20042;-80
2022/11/30 03:28:01;;;;;;;44.25;24.65;;;8.60;99.90;;;;;;5013311;28;20052;-80
2022/11/30 03:30:27;;;;;;;38.53;24.40;;;7.20;99.90;;;;;;5013142;28;20049;-80
2022/11/30 03:32:53;;;;;;;38.80;25.10;;;7.30;99.90;;;;;;5014224;28;20113;-80
2022/11/30 03:35:19;;;;;;;42.35;24.77;;;7.30;99.90;;;;;;5013008;28;20141;-79
2022/11/30 03:37:45;;;;;;;39.97;24.58;;;7.20;99.90;;;;;;5013270;28;20053;-80
2022/11/30 03:40:11;;;;;;;38.78;24.80;;;8.50;99.90;;;;;;5012485;28;20172;-80
2022/11/30 03:42:37;;;;;;;40.58;25.25;;;7.30;99.90;;;;;;5013971;28;20141;-80
2022/11/30 03:45:03;;;;;;;37.67;24.58;;;7.30;99.90;;;;;;5006822;28;20041;-79
2022/11/30 03:47:29;;;;;;;38.25;23.70;;;7.30;99.90;;;;;;5012024;28;20494;-79
2022/11/30 03:49:55;;;;;;;40.97;25.15;;;7.30;99.90;;;;;;5013973;28;20038;-79
2022/11/30 03:52:20;;;;;;;37.65;24.08;;;8.50;99.90;;;;;;5013724;28;20061;-79
2022/11/30 03:54:46;;;;;;;36.75;24.45;;;7.30;99.90;;;;;;5014036;28;20037;-79
2022/11/30 03:57:11;;;;;;;40.97;25.23;;;7.30;99.90;;;;;;5013595;28;20478;-79
2022/11/30 03:59:37;;;;;;;36.97;22.73;;;7.30;99.90;;;;;;5012240;28;20046;-79
2022/11/30 04:02:03;;;;;;;36.47;23.40;;;8.60;99.90;;;;;;5013424;28;20072;-79
2022/11/30 04:04:28;;;;;;;35.22;23.13;;;7.30;99.90;;;;;;5011911;28;20454;-79
2022/11/30 04:06:54;;;;;;;36.72;23.55;;;7.20;99.90;;;;;;5012016;28;20100;-79
2022/11/30 04:09:20;;;;;;;36.33;23.55;;;8.70;99.90;;;;;;5013502;28;20448;-79
2022/11/30 04:11:45;;;;;;;38.22;22.90;;;8.70;99.90;;;;;;5012089;28;20045;-79
2022/11/30 04:14:11;;;;;;;35.95;23.50;;;7.30;99.90;;;;;;5012088;28;20133;-79
2022/11/30 04:16:36;;;;;;;33.85;22.65;;;7.30;99.90;;;;;;5012085;28;20196;-79
2022/11/30 04:19:02;;;;;;;35.70;22.98;;;7.30;99.90;;;;;;5006674;28;20057;-79
2022/11/30 04:21:28;;;;;;;36.20;23.52;;;7.30;99.90;;;;;;5011124;28;20060;-79
2022/11/30 04:23:53;;;;;;;37.63;24.30;;;7.30;99.90;;;;;;5013063;28;20046;-79
2022/11/30 04:26:20;;;;;;;36.15;23.48;;;7.30;99.90;;;;;;5013400;28;20111;-79
2022/11/30 04:28:45;;;;;;;39.22;23.85;;;7.30;99.90;;;;;;5001830;28;20045;-79
2022/11/30 04:31:11;;;;;;;36.65;22.90;;;7.40;99.90;;;;;;5012006;28;20049;-79
2022/11/30 04:33:37;;;;;;;39.38;23.95;;;7.40;99.90;;;;;;4995717;28;20082;-78
2022/11/30 04:36:05;;;;;;;39.50;23.20;;;7.40;99.90;;;;;;5012165;28;20473;-79
2022/11/30 04:38:32;;;;;;;40.63;23.25;;;7.40;99.90;;;;;;5011691;28;20099;-79
2022/11/30 04:40:57;;;;;;;45.42;23.92;;;8.10;99.90;;;;;;5013545;28;20446;-79
2022/11/30 04:43:24;;;;;;;45.25;24.70;;;7.40;99.90;;;;;;5013535;28;20045;-79
2022/11/30 04:45:50;;;;;;;47.65;25.52;;;7.40;99.90;;;;;;5013192;28;20045;-79
2022/11/30 04:48:17;;;;;;;42.45;23.48;;;7.40;99.90;;;;;;5013186;28;20371;-79
2022/11/30 04:50:43;;;;;;;43.58;23.73;;;7.40;99.90;;;;;;5013179;28;20046;-79
2022/11/30 04:53:10;;;;;;;44.38;24.33;;;7.40;99.90;;;;;;5012866;28;20088;-79
2022/11/30 04:55:37;;;;;;;53.58;25.40;;;8.00;99.90;;;;;;5012761;28;20474;-79
2022/11/30 04:58:04;;;;;;;47.30;25.75;;;7.40;99.90;;;;;;5011542;28;20497;-79
2022/11/30 05:00:30;;;;;;;50.75;26.23;;;8.00;99.90;;;;;;5011635;28;20049;-79
2022/11/30 05:02:56;;;;;;;47.80;25.42;;;7.40;99.90;;;;;;4995246;28;20427;-79
2022/11/30 05:05:21;;;;;;;49.30;25.90;;;7.40;99.90;;;;;;5011530;28;20054;-81
2022/11/30 05:07:54;;;;;;;49.88;26.27;;;8.50;99.90;;;;;;5012298;28;20041;-79
2022/11/30 05:10:20;;;;;;;54.30;27.60;;;8.30;99.90;;;;;;4995207;28;20048;-79
2022/11/30 05:12:46;;;;;;;51.55;26.50;;;8.60;99.90;;;;;;5011418;28;20050;-79
2022/11/30 05:15:11;;;;;;;51.05;26.10;;;7.30;99.90;;;;;;5011128;28;20459;-81
2022/11/30 05:17:37;;;;;;;49.60;25.33;;;7.30;99.90;;;;;;5008967;28;20046;-79
2022/11/30 05:20:03;;;;;;;54.30;24.77;;;7.30;99.90;;;;;;5009797;28;20046;-81
2022/11/30 05:22:29;;;;;;;52.78;26.08;;;7.30;99.90;;;;;;5012436;28;20046;-79
2022/11/30 05:24:55;;;;;;;53.83;25.63;;;7.20;99.90;;;;;;5011031;28;20046;-79
2022/11/30 05:27:20;;;;;;;49.28;24.20;;;7.20;99.90;;;;;;5010989;28;20053;-79
2022/11/30 05:29:46;;;;;;;49.92;24.50;;;7.20;99.90;;;;;;5009885;28;20092;-79
2022/11/30 05:32:11;;;;;;;49.88;24.58;;;7.20;99.90;;;;;;5011252;28;20080;-79
2022/11/30 05:34:37;;;;;;;45.58;23.63;;;8.00;99.90;;;;;;5012291;28;20113;-79
2022/11/30 05:37:02;;;;;;;48.58;25.50;;;7.20;99.90;;;;;;5012346;28;20042;-79
2022/11/30 05:39:28;;;;;;;48.13;23.65;;;7.20;99.90;;;;;;5010912;28;20502;-79
2022/11/30 05:41:54;;;;;;;51.05;24.05;;;7.20;99.90;;;;;;5012567;28;20124;-79
2022/11/30 05:44:19;;;;;;;48.55;24.83;;;7.20;99.90;;;;;;5010654;28;20082;-79
2022/11/30 05:46:45;;;;;;;52.17;25.25;;;7.20;99.90;;;;;;5012220;28;20053;-79
2022/11/30 05:49:10;;;;;;;49.03;24.60;;;7.20;99.90;;;;;;5010956;28;20058;-79
2022/11/30 05:51:39;;;;;;;46.47;24.33;;;7.20;99.90;;;;;;5011205;28;20045;-79
2022/11/30 05:54:04;;;;;;;48.55;23.40;;;7.20;99.90;;;;;;5009150;28;20156;-78
2022/11/30 05:56:31;;;;;;;46.47;22.33;;;7.20;99.90;;;;;;5010349;28;20034;-78
2022/11/30 05:58:57;;;;;;;47.83;22.77;;;7.20;99.90;;;;;;5012311;28;20038;-79
2022/11/30 06:01:27;;;;;;;47.72;22.85;;;7.30;99.90;;;;;;5014495;28;20034;-79
2022/11/30 06:03:54;;;;;;;44.72;22.83;;;7.20;99.90;;;;;;5014394;28;20057;-79
2022/11/30 06:06:20;;;;;;;43.05;21.58;;;7.20;99.90;;;;;;5007724;28;20054;-79
2022/11/30 06:08:47;;;;;;;45.25;22.17;;;7.80;99.90;;;;;;5028181;28;20429;-79
2022/11/30 06:11:13;;;;;;;44.72;21.85;;;7.10;99.90;;;;;;5014126;28;20038;-79
2022/11/30 06:13:39;;;;;;;43.40;21.95;;;7.10;99.90;;;;;;5015886;28;20394;-79
2022/11/30 06:16:05;;;;;;;44.85;22.00;;;7.10;99.90;;;;;;5016027;28;20038;-79
2022/11/30 06:18:31;;;;;;;47.75;24.08;;;7.10;99.90;;;;;;5013807;28;20445;-79
2022/11/30 06:21:08;;;;;;;42.28;21.88;;;8.50;99.90;;;;;;5015379;28;20117;-80
2022/11/30 06:23:35;;;;;;;40.40;22.23;;;7.10;99.90;;;;;;5015767;28;20103;-79
2022/11/30 06:26:06;;;;;;;44.20;22.50;;;7.10;99.90;;;;;;5014967;28;20048;-79
2022/11/30 06:28:32;;;;;;;40.90;21.13;;;7.10;99.90;;;;;;5012943;28;20438;-79
2022/11/30 06:30:59;;;;;;;41.55;21.60;;;7.80;99.90;;;;;;5013650;28;20037;-79
2022/11/30 06:33:25;;;;;;;36.35;19.95;;;7.10;99.90;;;;;;5014246;28;20042;-80
2022/11/30 06:35:50;;;;;;;38.40;19.65;;;7.10;99.90;;;;;;5015012;28;20038;-80
2022/11/30 06:38:17;;;;;;;38.47;20.13;;;6.60;99.90;;;;;;5013997;28;20124;-80
2022/11/30 06:40:42;;;;;;;38.05;20.55;;;7.10;99.90;;;;;;5015565;28;20053;-80
2022/11/30 06:43:08;;;;;;;37.92;19.25;;;7.10;99.90;;;;;;5013499;28;20046;-80
2022/11/30 06:45:34;;;;;;;40.50;19.20;;;7.10;99.90;;;;;;4992910;28;20369;-80
2022/11/30 06:47:59;;;;;;;35.75;19.30;;;7.10;99.90;;;;;;5009842;28;20042;-80
2022/11/30 06:50:25;;;;;;;33.80;18.88;;;7.00;99.90;;;;;;5001278;28;20041;-79
2022/11/30 06:52:50;;;;;;;39.13;19.35;;;7.10;99.90;;;;;;5012433;28;20111;-79
2022/11/30 06:55:16;;;;;;;34.22;19.00;;;7.10;99.90;;;;;;4996804;28;20498;-80
2022/11/30 06:57:42;;;;;;;32.45;18.88;;;7.00;99.90;;;;;;5013135;28;20038;-79
2022/11/30 07:00:11;;;;;;;32.50;19.00;;;7.10;99.90;;;;;;5014377;28;20547;-80
2022/11/30 07:02:37;;;;;;;31.98;17.95;;;7.10;99.90;;;;;;5011307;28;20065;-79
2022/11/30 07:05:03;;;;;;;31.15;17.10;;;6.70;99.90;;;;;;5010844;28;20053;-79
2022/11/30 07:07:29;;;;;;;34.40;18.23;;;7.00;99.90;;;;;;5029425;28;20128;-79
2022/11/30 07:09:55;;;;;;;34.85;17.45;;;8.30;99.90;;;;;;5013371;28;20046;-79
2022/11/30 07:12:21;;;;;;;30.58;17.52;;;7.00;99.90;;;;;;5011892;28;20137;-81
2022/11/30 07:14:46;;;;;;;28.00;16.23;;;7.00;99.90;;;;;;5013147;28;20132;-80
2022/11/30 07:17:12;;;;;;;28.95;16.95;;;8.20;99.90;;;;;;5013180;28;20045;-80
2022/11/30 07:19:38;;;;;;;25.95;16.38;;;8.50;99.90;;;;;;5013238;28;20053;-82
2022/11/30 07:22:03;;;;;;;25.63;16.23;;;7.00;99.90;;;;;;5011085;28;20080;-80
2022/11/30 07:27:13;;;;;;;27.83;16.58;;;8.30;99.90;;;;;;5012724;28;20045;-80
2022/11/30 07:29:39;;;;;;;25.85;15.52;;;7.00;99.90;;;;;;5013932;28;20061;-80
2022/11/30 07:32:04;;;;;;;30.85;16.00;;;7.00;99.90;;;;;;5014157;28;20420;-80
2022/11/30 07:34:30;;;;;;;26.55;15.90;;;7.00;99.90;;;;;;5014743;28;20046;-80
2022/11/30 07:36:56;;;;;;;27.15;16.05;;;7.00;99.90;;;;;;4994563;28;20046;-80
2022/11/30 07:39:23;;;;;;;27.45;16.10;;;7.00;99.90;;;;;;4994709;28;20464;-81
2022/11/30 07:41:48;;;;;;;29.55;15.98;;;7.00;99.90;;;;;;5000264;28;20053;-81
2022/11/30 07:44:14;;;;;;;28.10;16.73;;;7.00;99.90;;;;;;5014216;28;20382;-80
2022/11/30 07:46:40;;;;;;;30.02;16.98;;;6.90;99.90;;;;;;5012593;28;20418;-80
2022/11/30 07:49:08;;;;;;;29.05;16.90;;;6.90;99.90;;;;;;4998402;28;20105;-81
2022/11/30 07:51:34;;;;;;;27.75;16.60;;;7.60;99.90;;;;;;5012133;28;20132;-81
2022/11/30 07:54:00;;;;;;;29.17;17.38;;;6.90;99.90;;;;;;5012482;28;20057;-81
2022/11/30 07:56:27;;;;;;;28.67;16.83;;;6.90;99.90;;;;;;5013908;28;20038;-81
2022/11/30 07:58:55;;;;;;;29.20;17.13;;;6.90;99.90;;;;;;5014041;28;20046;-81
2022/11/30 08:01:24;;;;;;;30.45;17.52;;;8.20;99.90;;;;;;5012725;28;20353;-81
2022/11/30 08:03:51;;;;;;;28.17;16.30;;;6.90;99.90;;;;;;5013331;28;20046;-80
2022/11/30 08:06:20;;;;;;;27.65;16.25;;;6.90;99.90;;;;;;4988072;28;20060;-80
2022/11/30 08:08:47;;;;;;;27.90;17.30;;;7.80;99.90;;;;;;4994317;28;20054;-81
2022/11/30 08:11:15;;;;;;;25.65;16.67;;;6.90;99.90;;;;;;4975407;28;20042;-81
2022/11/30 08:13:41;;;;;;;26.00;16.17;;;7.30;99.90;;;;;;4994109;28;20054;-81
2022/11/30 08:16:12;;;;;;;27.45;17.00;;;6.90;99.90;;;;;;4992520;28;20174;-81
2022/11/30 08:18:39;;;;;;;33.28;16.92;;;7.00;99.90;;;;;;4993873;28;20066;-81
2022/11/30 08:21:06;;;;;;;26.05;16.25;;;6.90;99.90;;;;;;4996916;28;20042;-81
2022/11/30 08:23:36;;;;;;;28.75;17.20;;;6.90;99.90;;;;;;5028478;28;20044;-81
2022/11/30 08:26:08;;;;;;;26.17;16.42;;;6.90;99.90;;;;;;5013007;28;20053;-81
2022/11/30 08:28:37;;;;;;;26.17;16.55;;;6.90;99.90;;;;;;5013307;28;20135;-81
2022/11/30 08:31:06;;;;;;;28.10;16.55;;;6.90;99.90;;;;;;5010832;28;20096;-81
2022/11/30 08:33:32;;;;;;;27.02;17.38;;;6.90;99.90;;;;;;4993127;28;20046;-81
2022/11/30 08:36:19;;;;;;;26.80;17.05;;;6.90;99.90;;;;;;5011236;28;20038;-79
2022/11/30 08:38:45;;;;;;;26.85;16.80;;;7.00;99.90;;;;;;5012339;28;20573;-78
2022/11/30 08:41:12;;;;;;;28.52;17.48;;;7.50;99.90;;;;;;5011816;28;20041;-80
2022/11/30 08:43:38;;;;;;;28.85;17.45;;;8.10;99.90;;;;;;5024398;28;20415;-80
2022/11/30 08:46:06;;;;;;;26.15;17.20;;;7.00;99.90;;;;;;4993459;28;20380;-80
2022/11/30 08:48:33;;;;;;;31.38;17.75;;;7.00;99.90;;;;;;4991619;28;20137;-80
2022/11/30 08:51:00;;;;;;;25.38;16.95;;;7.00;99.90;;;;;;4992301;28;20042;-78
2022/11/30 08:53:26;;;;;;;27.42;16.67;;;7.10;99.90;;;;;;4993346;28;20046;-80
2022/11/30 08:55:59;;;;;;;28.48;17.25;;;7.10;99.90;;;;;;4993029;28;20061;-80
2022/11/30 08:58:28;;;;;;;26.45;15.82;;;7.20;99.90;;;;;;5014682;28;20422;-80
2022/11/30 09:00:54;;;;;;;26.98;17.10;;;7.80;99.90;;;;;;5010690;28;20482;-80
2022/11/30 09:03:19;;;;;;;27.67;17.58;;;7.30;99.90;;;;;;5010610;28;20042;-80
2022/11/30 09:05:45;;;;;;;30.52;18.95;;;7.20;99.90;;;;;;5012264;28;20057;-79
2022/11/30 09:08:11;;;;;;;29.63;18.10;;;7.20;99.90;;;;;;5011889;28;20064;-81
2022/11/30 09:10:37;;;;;;;29.60;18.30;;;7.30;99.90;;;;;;5012111;28;20034;-81
2022/11/30 09:13:02;;;;;;;34.42;20.40;;;7.20;99.90;;;;;;5011361;28;20128;-79
2022/11/30 09:15:29;;;;;;;33.60;19.00;;;8.90;99.90;;;;;;5011248;28;20494;-79
2022/11/30 09:17:55;;;;;;;36.97;19.42;;;8.50;99.90;;;;;;5012277;28;20038;-80
2022/11/30 09:20:20;;;;;;;36.25;19.70;;;8.20;99.90;;;;;;5027738;28;20054;-80
2022/11/30 09:22:46;;;;;;;36.50;20.80;;;7.30;99.90;;;;;;5012639;28;20502;-79
2022/11/30 09:25:11;;;;;;;37.35;20.35;;;8.70;99.90;;;;;;5027581;28;20057;-80
2022/11/30 09:27:37;;;;;;;37.30;21.05;;;7.30;99.90;;;;;;5027466;28;20050;-80
2022/11/30 09:30:03;;;;;;;38.47;21.30;;;7.40;99.90;;;;;;5012328;28;20045;-81
2022/11/30 09:32:32;;;;;;;37.67;21.50;;;7.40;99.90;;;;;;5027112;28;20042;-80
2022/11/30 09:34:57;;;;;;;38.92;21.98;;;7.40;99.90;;;;;;5010477;28;20441;-80
2022/11/30 09:37:23;;;;;;;38.83;22.13;;;7.40;99.90;;;;;;5013824;28;20048;-80
2022/11/30 09:39:49;;;;;;;36.03;20.23;;;8.40;99.90;;;;;;5015565;28;20473;-81
2022/11/30 09:42:25;;;;;;;39.42;21.85;;;7.50;99.90;;;;;;5015215;28;20119;-83
2022/11/30 09:45:02;;;;;;;39.20;21.60;;;7.50;99.90;;;;;;5016718;28;20076;-83
2022/11/30 09:47:36;;;;;;;39.17;22.98;;;7.50;99.90;;;;;;5015182;28;20121;-82
2022/11/30 09:50:11;;;;;;;37.78;23.02;;;7.50;99.90;;;;;;5016745;28;20049;-83
2022/11/30 09:52:42;;;;;;;37.75;21.63;;;8.50;99.90;;;;;;4999038;28;20044;-72
2022/11/30 09:55:11;;;;;;;35.33;21.50;;;7.60;99.90;;;;;;5014887;28;20153;-81
2022/11/30 09:57:51;;;;;;;39.70;22.45;;;7.70;99.90;;;;;;5014575;28;20112;-81
2022/11/30 10:00:23;;;;;;;39.03;22.58;;;8.90;99.90;;;;;;5015169;28;20052;-81
2022/11/30 10:02:50;;;;;;;37.85;22.63;;;7.70;99.90;;;;;;5016098;28;20481;-81
2022/11/30 10:05:27;;;;;;;39.90;22.67;;;7.70;99.90;;;;;;5012163;28;20148;-81
2022/11/30 10:08:23;;;;;;;44.45;23.75;;;8.60;99.90;;;;;;5009634;28;20045;-81
2022/11/30 10:11:02;;;;;;;42.53;23.40;;;7.80;99.90;;;;;;5014886;28;20414;-81
2022/11/30 10:13:39;;;;;;;38.00;22.10;;;7.80;99.90;;;;;;5015911;28;20433;-81
2022/11/30 10:16:26;;;;;;;40.35;23.60;;;7.80;99.90;;;;;;5015355;28;20046;-81
2022/11/30 10:19:11;;;;;;;;;;;7.70;99.90;;;;;;4994306;28;20057;-81
2022/11/30 10:22:03;;;;;;;40.80;22.67;;;8.10;99.90;;;;;;4983294;28;19930;-81
2022/11/30 10:24:34;;;;;;;37.65;23.08;;;7.70;99.90;;;;;;4972605;28;20054;-80
2022/11/30 10:27:11;;;;;;;36.72;22.55;;;8.30;99.90;;;;;;5013752;28;20041;-80
2022/11/30 10:29:40;;;;;;;38.10;23.58;;;8.70;99.90;;;;;;5015450;28;20049;-80
2022/11/30 10:32:36;;;;;;;37.78;21.67;;;8.60;99.90;;;;;;5015097;28;20125;-80
2022/11/30 10:35:15;;;;;;;41.53;22.90;;;7.70;99.90;;;;;;5014072;28;20058;-80
2022/11/30 10:37:41;;;;;;;37.95;23.23;;;7.70;99.90;;;;;;5015274;28;20052;-80
2022/11/30 10:40:41;;;;;;;37.90;22.77;;;8.40;99.90;;;;;;5013815;28;20073;-80
2022/11/30 10:43:15;;;;;;;39.45;22.88;;;7.70;99.90;;;;;;5014541;28;20356;-80
2022/11/30 10:45:47;;;;;;;36.00;21.00;;;7.70;99.90;;;;;;5013942;28;20405;-80
2022/11/30 10:48:32;;;;;;;38.55;22.08;;;7.70;99.90;;;;;;5014589;28;20077;-81
2022/11/30 10:50:59;;;;;;;32.58;20.25;;;7.80;99.90;;;;;;5015559;28;20038;-80
2022/11/30 10:53:25;;;;;;;31.30;19.92;;;7.80;99.90;;;;;;5015047;28;20096;-81
2022/11/30 10:56:12;;;;;;;32.88;20.88;;;8.70;99.90;;;;;;5014974;28;20128;-80
2022/11/30 10:58:41;;;;;;;34.67;21.08;;;8.40;99.90;;;;;;5015039;28;20046;-80
2022/11/30 11:01:09;;;;;;;32.97;21.35;;;7.90;99.90;;;;;;5015337;28;20456;-78
2022/11/30 11:03:36;;;;;;;32.20;20.73;;;8.90;99.90;;;;;;5013582;28;20042;-82
2022/11/30 11:06:06;;;;;;;29.92;19.85;;;7.90;99.90;;;;;;5008040;28;20046;-81
2022/11/30 11:08:32;;;;;;;30.98;20.35;;;7.90;99.90;;;;;;4994927;28;20058;-81
2022/11/30 11:10:58;;;;;;;33.20;19.42;;;8.00;99.90;;;;;;5008698;28;20491;-81
2022/11/30 11:13:42;;;;;;;31.88;20.08;;;8.70;99.90;;;;;;4995124;28;20048;-81
2022/11/30 11:16:12;;;;;;;31.75;20.55;;;8.10;99.90;;;;;;4995365;28;20133;-82
2022/11/30 11:18:56;;;;;;;31.98;20.77;;;9.30;99.90;;;;;;5014423;28;20046;-81
2022/11/30 11:21:23;;;;;;;36.47;21.88;;;9.00;99.90;;;;;;4993461;28;20080;-81
2022/11/30 11:23:52;;;;;;;32.30;21.52;;;8.10;99.90;;;;;;5009749;28;20050;-81
2022/11/30 11:26:26;;;;;;;31.55;20.88;;;8.20;99.90;;;;;;4994845;28;20367;-81
2022/11/30 11:28:55;;;;;;;32.58;21.13;;;8.50;99.90;;;;;;4991898;28;20062;-81
2022/11/30 11:31:39;;;;;;;32.65;21.15;;;8.10;99.90;;;;;;5009214;28;20062;-81
2022/11/30 11:34:27;;;;;;;32.55;21.85;;;8.10;99.90;;;;;;4994476;28;20140;-82
2022/11/30 11:37:07;;;;;;;35.05;21.75;;;8.10;99.90;;;;;;5009571;28;20403;-81
2022/11/30 11:39:32;;;;;;;34.03;21.92;;;8.10;99.90;;;;;;5006177;28;20049;-81
2022/11/30 11:41:59;;;;;;;31.40;20.35;;;8.30;99.90;;;;;;5013076;28;20048;-81
2022/11/30 11:44:26;;;;;;;35.28;22.20;;;8.10;99.90;;;;;;5013524;28;20498;-81
2022/11/30 11:47:01;;;;;;;36.80;22.70;;;9.10;99.90;;;;;;5011707;28;20045;-81
2022/11/30 11:49:35;;;;;;;33.53;20.57;;;8.10;99.90;;;;;;4996423;28;20553;-81
2022/11/30 11:52:10;;;;;;;33.08;21.98;;;9.10;99.90;;;;;;5029295;28;20076;-82
2022/11/30 11:54:39;;;;;;;34.83;22.17;;;8.00;99.90;;;;;;4990261;28;20046;-82
2022/11/30 11:57:12;;;;;;;32.92;22.10;;;8.00;99.90;;;;;;4992805;28;20082;-81
2022/11/30 12:00:24;;;;;;;34.25;21.85;;;8.00;99.90;;;;;;4998898;28;20135;-82
2022/11/30 12:03:14;;;;;;;33.50;21.48;;;8.00;99.90;;;;;;4952368;28;20514;-81
2022/11/30 12:05:44;;;;;;;37.42;21.45;;;8.10;99.90;;;;;;5010932;28;20383;-81
2022/11/30 12:08:21;;;;;;;34.30;21.38;;;8.30;99.90;;;;;;5009693;28;20125;-83
2022/11/30 12:10:57;;;;;;;34.90;22.00;;;8.00;99.90;;;;;;5009797;28;20056;-85
2022/11/30 12:13:31;;;;;;;35.35;22.88;;;8.00;99.90;;;;;;5009255;28;20085;-85
2022/11/30 12:15:58;;;;;;;33.72;22.60;;;8.00;99.90;;;;;;5009520;28;20046;-85
2022/11/30 12:18:41;;;;;;;37.45;22.92;;;8.00;99.90;;;;;;5028258;28;20108;-85
2022/11/30 12:21:36;;;;;;;34.33;22.40;;;8.00;99.90;;;;;;5010936;28;20659;-86
2022/11/30 12:24:25;;;;;;;33.63;20.95;;;7.90;99.90;;;;;;5009533;28;20050;-86
2022/11/30 12:27:25;;;;;;;36.63;21.95;;;8.00;99.90;;;;;;5005577;28;20048;-84
2022/11/30 12:30:14;;;;;;;37.15;21.98;;;8.00;99.90;;;;;;5008724;28;20042;-84
2022/11/30 12:32:49;;;;;;;34.33;22.40;;;8.00;99.90;;;;;;5025606;28;20058;-85
2022/11/30 12:35:19;;;;;;;38.47;22.48;;;8.00;99.90;;;;;;5007952;28;20046;-86
2022/11/30 12:38:16;;;;;;;35.97;22.92;;;7.90;99.90;;;;;;5008488;28;20042;-86
2022/11/30 12:40:51;;;;;;;34.97;22.35;;;7.80;99.90;;;;;;5010373;28;20057;-84
2022/11/30 12:43:32;;;;;;;36.65;22.88;;;7.90;99.90;;;;;;5009680;28;20046;-86
2022/11/30 12:46:10;;;;;;;36.33;21.58;;;8.20;99.90;;;;;;5009017;28;20394;-85
2022/11/30 12:48:42;;;;;;;38.65;22.67;;;7.80;99.90;;;;;;5024413;28;20038;-84
2022/11/30 12:51:29;;;;;;;39.90;23.25;;;7.80;99.90;;;;;;5003922;28;20049;-84
2022/11/30 12:53:59;;;;;;;37.28;23.08;;;7.80;99.90;;;;;;5009042;28;20372;-82
2022/11/30 12:56:31;;;;;;;39.38;23.63;;;7.80;99.90;;;;;;5011172;28;20137;-82